Time;durP1;ratioP1;P1;durP2;ratioP2;P2;SDS_P1;SDS_P2;PMS_P1;PMS_P2;Temp;Humidity;BMP_temperature;BMP_pressure;BME280_temperature;BME280_humidity;BME280_pressure;Samples;Min_cycle;Max_cycle;Signal;HPM_P1;HPM_P2
2021/12/17 00:02:10;;;;;;;20.47;9.30;;;;;;;5.80;100.00;103231.94;5015878;28;20315;-53
2021/12/17 00:04:36;;;;;;;20.63;9.47;;;;;;;5.77;100.00;103236.97;5037920;22;20229;-55
2021/12/17 00:07:03;;;;;;;15.63;8.73;;;;;;;5.69;100.00;103239.13;5015616;28;20732;-56
2021/12/17 00:09:30;;;;;;;14.57;9.13;;;;;;;5.65;100.00;103245.88;5013491;28;20279;-56
2021/12/17 00:11:56;;;;;;;21.67;10.07;;;;;;;5.70;100.00;103257.44;5020273;28;20748;-55
2021/12/17 00:14:26;;;;;;;18.30;10.80;;;;;;;5.65;100.00;103253.69;5022753;28;20240;-56
2021/12/17 00:16:55;;;;;;;20.10;9.80;;;;;;;5.62;100.00;103260.44;5028289;28;20232;-55
2021/12/17 00:19:32;;;;;;;19.90;9.63;;;;;;;5.73;100.00;103252.44;5016059;28;20797;-56
2021/12/17 00:44:16;;;;;;;24.07;9.43;;;;;;;5.92;100.00;103253.50;4994752;28;20256;-55
2021/12/17 00:49:33;;;;;;;18.63;9.43;;;;;;;5.88;100.00;103246.31;5020387;28;20967;-56
2021/12/17 00:52:01;;;;;;;17.27;9.33;;;;;;;5.73;100.00;103252.44;5025186;28;20262;-55
2021/12/17 00:54:34;;;;;;;15.33;7.97;;;;;;;5.78;100.00;103254.41;5022989;28;20330;-56
2021/12/17 00:57:03;;;;;;;12.83;8.63;;;;;;;5.68;100.00;103251.22;5018058;28;20240;-55
2021/12/17 00:59:30;;;;;;;26.00;9.33;;;;;;;5.74;100.00;103235.97;5024237;28;20783;-55
2021/12/17 01:01:58;;;;;;;22.53;10.20;;;;;;;5.68;100.00;103248.63;5023351;28;20724;-55
2021/12/17 01:04:25;;;;;;;18.20;9.63;;;;;;;5.64;100.00;103241.44;5023900;28;20671;-55
2021/12/17 01:06:53;;;;;;;13.07;8.70;;;;;;;5.67;100.00;103246.84;5019754;28;20257;-56
2021/12/17 01:09:22;;;;;;;19.20;8.90;;;;;;;5.68;100.00;103251.22;5027479;28;20903;-54
2021/12/17 01:11:48;;;;;;;16.20;9.50;;;;;;;5.75;100.00;103242.06;5028449;28;20863;-56
2021/12/17 01:14:15;;;;;;;15.77;8.30;;;;;;;5.63;100.00;103243.97;5028588;28;20853;-55
2021/12/17 01:16:42;;;;;;;12.80;8.17;;;;;;;5.73;100.00;103228.97;5028387;28;20709;-55
2021/12/17 01:19:16;;;;;;;22.17;8.67;;;;;;;5.67;100.00;103233.81;5025268;28;20245;-54
2021/12/17 01:21:57;;;;;;;16.33;8.77;;;;;;;5.74;100.00;103219.44;5023843;28;20231;-54
2021/12/17 01:24:36;;;;;;;21.53;9.27;;;;;;;5.68;100.00;103219.97;5030141;28;20265;-56
2021/12/17 01:35:22;;;;;;;19.60;8.97;;;;;;;5.70;100.00;103239.22;5028721;28;20251;-55
2021/12/17 01:43:27;;;;;;;16.87;8.50;;;;;;;5.64;100.00;103257.06;5025510;28;20244;-56
2021/12/17 01:45:53;;;;;;;18.63;9.73;;;;;;;5.78;100.00;103257.00;5021879;28;20724;-54
2021/12/17 01:48:26;;;;;;;15.50;8.37;;;;;;;5.81;100.00;103251.97;5029930;28;20658;-55
2021/12/17 01:56:38;;;;;;;20.70;9.13;;;;;;;5.64;100.00;103241.44;5024494;28;20360;-54
2021/12/17 01:59:21;;;;;;;20.57;9.00;;;;;;;5.62;100.00;103237.88;5025057;28;20633;-53
2021/12/17 02:01:47;;;;;;;21.93;9.30;;;;;;;5.68;100.00;103238.19;5027594;28;20236;-55
2021/12/17 02:04:14;;;;;;;14.90;8.17;;;;;;;5.52;100.00;103235.50;5028101;28;20251;-54
2021/12/17 02:06:40;;;;;;;15.33;7.70;;;;;;;5.57;100.00;103230.56;5028286;28;20232;-54
2021/12/17 02:09:21;;;;;;;14.10;7.93;;;;;;;5.54;100.00;103219.97;5027220;28;20228;-55
2021/12/17 02:12:16;;;;;;;17.70;9.83;;;;;;;5.55;100.00;103225.28;5031343;28;20653;-55
2021/12/17 02:20:42;;;;;;;23.73;9.13;;;;;;;5.47;100.00;103229.09;5026268;28;20289;-58
2021/12/17 02:28:43;;;;;;;14.20;7.00;;;;;;;5.46;100.00;103224.72;5035562;28;20949;-54
2021/12/17 02:29:32;;;;;;;17.30;7.40;;;;;;;5.51;100.00;103210.28;4957675;28;20241;-54
2021/12/17 02:32:01;;;;;;;25.57;9.20;;;;;;;5.53;100.00;103213.84;4956648;28;20690;-55
2021/12/17 02:34:43;;;;;;;12.93;7.20;;;;;;;5.44;100.00;103222.03;4996816;28;20288;-54
2021/12/17 02:37:16;;;;;;;16.23;7.50;;;;;;;5.55;100.00;103225.28;5019907;28;20244;-55
2021/12/17 02:40:01;;;;;;;20.90;7.57;;;;;;;5.53;100.00;103226.88;5032460;28;20232;-56
2021/12/17 02:45:31;;;;;;;17.83;8.30;;;;;;;5.49;100.00;103227.50;5021389;28;20235;-55
2021/12/17 02:45:32;;;;;;;14.93;8.40;;;;;;;5.52;100.00;103216.38;5024753;28;20362;-56
2021/12/17 02:48:00;;;;;;;16.33;8.37;;;;;;;5.64;100.00;103220.59;5030583;28;20251;-54
2021/12/17 02:50:27;;;;;;;12.50;8.13;;;;;;;5.67;100.00;103215.56;5036393;28;20236;-56
2021/12/17 02:52:57;;;;;;;20.10;8.93;;;;;;;5.71;100.00;103229.69;5042589;28;20231;-57
2021/12/17 02:55:25;;;;;;;18.37;7.40;;;;;;;5.57;100.00;103228.84;5046647;28;20266;-58
2021/12/17 02:57:51;;;;;;;23.70;8.43;;;;;;;5.71;100.00;103230.56;5047429;28;20221;-57
2021/12/17 03:00:18;;;;;;;12.90;7.07;;;;;;;5.66;100.00;103228.53;5048415;28;20368;-64
2021/12/17 03:02:46;;;;;;;14.20;8.63;;;;;;;5.51;100.00;103212.88;5047577;28;20247;-58
2021/12/17 03:05:12;;;;;;;15.57;7.63;;;;;;;5.59;100.00;103211.63;5044940;28;20240;-55
2021/12/17 03:07:42;;;;;;;16.50;8.10;;;;;;;5.51;100.00;103218.09;5035510;28;20244;-55
2021/12/17 03:10:11;;;;;;;19.10;8.57;;;;;;;5.52;100.00;103212.06;5032243;28;20233;-54
2021/12/17 03:12:43;;;;;;;16.47;9.27;;;;;;;5.61;100.00;103220.41;5025182;28;20233;-55
2021/12/17 03:15:20;;;;;;;19.00;7.43;;;;;;;5.53;100.00;103216.47;5020159;28;20267;-59
2021/12/17 03:18:34;;;;;;;17.87;7.97;;;;;;;5.51;100.00;103212.88;5012078;28;20245;-56
2021/12/17 03:23:42;;;;;;;13.27;7.97;;;;;;;5.64;100.00;103215.38;5020262;28;20658;-55
2021/12/17 03:26:11;;;;;;;13.47;7.80;;;;;;;5.53;100.00;103215.56;5022919;28;20808;-54
2021/12/17 03:28:38;;;;;;;13.97;6.87;;;;;;;5.58;100.00;103215.03;5014820;28;20263;-53
2021/12/17 03:31:06;;;;;;;18.87;9.03;;;;;;;5.43;100.00;103208.91;5023919;28;20311;-56
2021/12/17 03:33:33;;;;;;;15.40;7.97;;;;;;;5.56;100.00;103206.22;5022376;28;20316;-55
2021/12/17 03:35:59;;;;;;;19.63;8.43;;;;;;;5.56;100.00;103193.19;5023216;28;20721;-55
2021/12/17 03:38:26;;;;;;;18.73;7.80;;;;;;;5.51;100.00;103197.25;5025511;28;20705;-55
2021/12/17 03:41:03;;;;;;;17.17;8.07;;;;;;;5.48;100.00;103197.06;5028996;28;20237;-57
2021/12/17 03:43:32;;;;;;;14.60;8.20;;;;;;;5.45;100.00;103200.38;5027113;28;20232;-55
2021/12/17 03:45:59;;;;;;;14.20;7.67;;;;;;;5.56;100.00;103193.19;5031807;28;20239;-54
2021/12/17 03:48:25;;;;;;;20.90;8.80;;;;;;;5.42;100.00;103192.38;5031832;28;20263;-53
2021/12/17 03:50:51;;;;;;;14.63;8.20;;;;;;;5.43;100.00;103182.84;5042766;28;20233;-57
2021/12/17 03:53:18;;;;;;;16.30;8.10;;;;;;;5.49;100.00;103178.00;5039050;28;20269;-54
2021/12/17 03:55:44;;;;;;;23.07;9.27;;;;;;;5.47;100.00;103183.09;5042896;28;20233;-54
2021/12/17 03:58:10;;;;;;;20.70;8.73;;;;;;;5.40;100.00;103183.56;5026454;28;20270;-56
2021/12/17 04:00:38;;;;;;;16.70;7.80;;;;;;;5.36;100.00;103180.69;5027064;28;20294;-57
2021/12/17 04:03:04;;;;;;;22.17;7.90;;;;;;;5.31;100.00;103187.34;5029987;28;20316;-55
2021/12/17 04:05:31;;;;;;;13.07;7.17;;;;;;;5.32;100.00;103186.53;5025293;28;20236;-55
2021/12/17 04:07:57;;;;;;;15.20;9.10;;;;;;;5.28;100.00;103188.03;5029081;28;20255;-55
2021/12/17 04:10:25;;;;;;;16.63;7.30;;;;;;;5.47;100.00;103187.44;5028447;28;20263;-54
2021/12/17 04:12:56;;;;;;;13.37;6.87;;;;;;;5.40;100.00;103185.25;5027492;28;20737;-55
2021/12/17 04:15:32;;;;;;;13.37;7.43;;;;;;;5.49;100.00;103193.63;5025226;28;22549;-54
2021/12/17 04:18:00;;;;;;;12.30;8.20;;;;;;;5.46;100.00;103183.03;5026863;28;20257;-56
2021/12/17 04:20:26;;;;;;;14.90;7.60;;;;;;;5.41;100.00;103192.28;5025643;28;20334;-54
2021/12/17 04:22:53;;;;;;;18.43;7.37;;;;;;;5.47;100.00;103196.13;5017426;28;20271;-53
2021/12/17 04:25:19;;;;;;;11.73;7.63;;;;;;;5.52;100.00;103191.22;5025551;28;20243;-55
2021/12/17 04:27:46;;;;;;;23.47;8.27;;;;;;;5.64;100.00;103197.13;5025116;28;20235;-55
2021/12/17 04:30:12;;;;;;;16.20;8.50;;;;;;;5.52;100.00;103198.13;5022749;28;20745;-55
2021/12/17 04:32:39;;;;;;;20.93;7.87;;;;;;;5.53;100.00;103199.94;5025305;28;20752;-55
2021/12/17 04:35:07;;;;;;;21.47;7.73;;;;;;;5.53;100.00;103194.72;5027889;28;20252;-55
2021/12/17 04:37:34;;;;;;;23.67;9.03;;;;;;;5.57;100.00;103189.78;5025562;28;20282;-54
2021/12/17 04:40:01;;;;;;;14.77;7.57;;;;;;;5.43;100.00;103181.13;5024522;28;20295;-54
2021/12/17 04:42:35;;;;;;;13.33;7.03;;;;;;;5.44;100.00;103184.63;5026299;28;20287;-56
2021/12/17 04:45:01;;;;;;;16.73;7.90;;;;;;;5.47;100.00;103190.03;5027805;28;20332;-54
2021/12/17 04:58:21;;;;;;;15.23;6.87;;;;;;;5.42;100.00;103204.50;5027870;28;20283;-57
2021/12/17 05:00:47;;;;;;;13.93;6.80;;;;;;;5.48;100.00;103213.59;5034106;28;20243;-56
2021/12/17 05:03:14;;;;;;;14.80;7.70;;;;;;;5.35;100.00;103212.75;5026552;28;20240;-54
2021/12/17 05:05:41;;;;;;;19.63;7.40;;;;;;;5.47;100.00;103213.47;5026071;28;20282;-56
2021/12/17 05:08:12;;;;;;;15.97;6.83;;;;;;;5.44;100.00;103211.63;5024737;28;20240;-57
2021/12/17 05:10:56;;;;;;;13.90;7.47;;;;;;;5.52;100.00;103200.75;5027344;28;20251;-53
2021/12/17 05:18:56;;;;;;;11.20;7.73;;;;;;;5.54;100.00;103207.81;5022985;28;20240;-55
2021/12/17 05:21:25;;;;;;;13.77;6.77;;;;;;;5.49;100.00;103199.75;5025823;28;20245;-54
2021/12/17 05:23:52;;;;;;;16.30;6.97;;;;;;;5.57;100.00;103201.91;5028275;28;20243;-59
2021/12/17 05:26:20;;;;;;;13.73;8.00;;;;;;;5.50;100.00;103200.63;5027054;28;20286;-55
2021/12/17 05:28:48;;;;;;;13.83;7.20;;;;;;;5.47;100.00;103210.88;5029407;28;20232;-56
2021/12/17 05:31:16;;;;;;;14.70;7.57;;;;;;;5.36;100.00;103206.72;5030564;28;20294;-55
2021/12/17 05:33:42;;;;;;;14.33;7.07;;;;;;;5.37;100.00;103204.25;5028377;28;20270;-56
2021/12/17 05:36:09;;;;;;;14.07;6.60;;;;;;;5.33;100.00;103211.75;5029361;28;20294;-57
2021/12/17 05:38:36;;;;;;;19.63;8.03;;;;;;;5.35;100.00;103217.97;5028140;28;20286;-54
2021/12/17 05:41:03;;;;;;;17.63;6.70;;;;;;;5.41;100.00;103220.94;5029271;28;20299;-55
2021/12/17 05:43:35;;;;;;;12.77;6.67;;;;;;;5.28;100.00;103215.81;5025909;28;20245;-55
2021/12/17 05:46:09;;;;;;;12.33;6.83;;;;;;;5.38;100.00;103225.97;5030463;28;20248;-57
2021/12/17 05:48:36;;;;;;;16.73;7.87;;;;;;;5.23;100.00;103226.84;5019638;28;20233;-55
2021/12/17 05:51:05;;;;;;;21.60;8.03;;;;;;;5.31;100.00;103223.81;5027447;28;20244;-54
2021/12/17 05:53:32;;;;;;;14.70;6.90;;;;;;;5.43;100.00;103229.75;5028239;28;20232;-58
2021/12/17 05:56:00;;;;;;;19.70;7.60;;;;;;;5.15;100.00;103222.84;5031591;28;20225;-56
2021/12/17 05:58:27;;;;;;;16.87;9.40;;;;;;;5.25;100.00;103225.22;5034295;28;20236;-61
2021/12/17 06:00:54;;;;;;;11.90;7.13;;;;;;;5.27;100.00;103217.50;5035904;28;20229;-56
2021/12/17 06:03:23;;;;;;;13.43;6.40;;;;;;;5.23;100.00;103229.44;5034152;28;20236;-55
2021/12/17 06:05:49;;;;;;;33.53;8.37;;;;;;;5.11;100.00;103223.47;5039401;22;20228;-51
2021/12/17 06:08:16;;;;;;;17.53;6.83;;;;;;;5.17;100.00;103217.75;5012049;28;20759;-51
2021/12/17 06:10:42;;;;;;;12.77;6.83;;;;;;;5.03;100.00;103228.22;5007456;28;20277;-51
2021/12/17 06:13:10;;;;;;;12.37;7.30;;;;;;;4.99;100.00;103228.84;5011905;28;20263;-53
2021/12/17 06:15:36;;;;;;;13.70;6.63;;;;;;;5.17;100.00;103228.19;5013480;28;20801;-53
2021/12/17 06:18:02;;;;;;;13.17;7.60;;;;;;;5.17;100.00;103231.66;5005344;28;20263;-52
2021/12/17 06:20:29;;;;;;;17.13;7.53;;;;;;;5.09;100.00;103239.81;5007275;28;20283;-50
2021/12/17 06:22:55;;;;;;;11.37;7.07;;;;;;;5.00;100.00;103237.53;5003654;28;20296;-52
2021/12/17 06:25:22;;;;;;;16.60;7.60;;;;;;;5.17;100.00;103239.47;5003960;28;20260;-53
2021/12/17 06:27:49;;;;;;;10.77;5.93;;;;;;;5.10;100.00;103229.50;5005584;28;20248;-54
2021/12/17 06:30:20;;;;;;;19.00;7.30;;;;;;;5.17;100.00;103233.38;5010709;28;20791;-54
2021/12/17 06:32:46;;;;;;;10.83;5.90;;;;;;;5.08;100.00;103245.81;5013229;28;20357;-54
2021/12/17 06:35:13;;;;;;;14.07;6.90;;;;;;;5.09;100.00;103245.94;5003970;28;20252;-53
2021/12/17 06:37:40;;;;;;;11.00;5.20;;;;;;;5.06;100.00;103243.13;5003826;28;20726;-52
2021/12/17 06:40:08;;;;;;;11.63;6.30;;;;;;;5.15;100.00;103259.31;5006816;28;20323;-53
2021/12/17 06:42:35;;;;;;;11.47;6.40;;;;;;;5.18;100.00;103258.59;5012020;28;20238;-56
2021/12/17 06:45:05;;;;;;;13.63;5.97;;;;;;;5.14;100.00;103256.63;5020073;28;20266;-54
2021/12/17 06:47:35;;;;;;;16.10;6.73;;;;;;;5.07;100.00;103252.75;5019516;28;20238;-53
2021/12/17 06:54:39;;;;;;;10.20;5.30;;;;;;;5.04;100.00;103260.34;5018560;28;20230;-54
2021/12/17 06:56:39;;;;;;;17.00;6.90;;;;;;;5.07;100.00;103259.66;5009508;28;20258;-54
2021/12/17 06:59:05;;;;;;;11.57;6.30;;;;;;;5.15;100.00;103251.50;5007436;28;20605;-54
2021/12/17 07:10:12;;;;;;;16.07;5.67;;;;;;;5.29;100.00;103261.88;4971566;28;20717;-56
2021/12/17 07:18:44;;;;;;;14.40;6.03;;;;;;;5.21;100.00;103254.50;5000724;28;20263;-53
2021/12/17 07:21:23;;;;;;;15.73;7.10;;;;;;;5.27;100.00;103261.78;5005076;28;20809;-53
2021/12/17 07:24:46;;;;;;;17.93;6.87;;;;;;;5.34;100.00;103266.56;4999384;28;20654;-57
2021/12/17 07:32:43;;;;;;;19.43;7.30;;;;;;;5.37;100.00;103268.44;5003296;28;20687;-51
2021/12/17 07:40:40;;;;;;;22.40;7.10;;;;;;;5.24;100.00;103270.31;5008311;28;20244;-53
2021/12/17 07:43:12;;;;;;;11.67;6.33;;;;;;;5.26;100.00;103263.50;5008741;28;20233;-54
2021/12/17 07:45:39;;;;;;;17.80;6.83;;;;;;;5.19;100.00;103265.59;5008905;28;20232;-55
2021/12/17 07:48:06;;;;;;;16.23;6.73;;;;;;;5.19;100.00;103271.72;5005391;28;20874;-54
2021/12/17 07:50:32;;;;;;;12.63;6.83;;;;;;;5.24;100.00;103265.09;5000049;28;20261;-52
2021/12/17 07:53:00;;;;;;;9.27;6.00;;;;;;;5.30;100.00;103253.25;5004874;28;20279;-54
2021/12/17 07:55:26;;;;;;;11.20;6.60;;;;;;;5.29;100.00;103247.13;5002018;28;20245;-51
2021/12/17 07:57:53;;;;;;;8.40;5.70;;;;;;;5.26;100.00;103247.88;5003141;28;20714;-52
2021/12/17 08:00:19;;;;;;;10.60;5.90;;;;;;;5.38;100.00;103241.59;5003032;28;20764;-53
2021/12/17 08:02:45;;;;;;;7.83;5.93;;;;;;;5.37;100.00;103245.00;5004464;28;20942;-54
2021/12/17 08:05:12;;;;;;;15.77;8.07;;;;;;;5.37;100.00;103235.50;4999009;28;20303;-53
2021/12/17 08:07:38;;;;;;;9.83;5.33;;;;;;;5.38;100.00;103234.69;5005541;28;20269;-53
2021/12/17 08:10:06;;;;;;;12.37;5.83;;;;;;;5.43;100.00;103229.75;5002459;28;20225;-55
2021/12/17 08:12:33;;;;;;;12.50;5.70;;;;;;;5.41;100.00;103228.78;5000659;28;20303;-51
2021/12/17 08:14:59;;;;;;;12.50;6.20;;;;;;;5.49;100.00;103237.94;5005127;28;20314;-52
2021/12/17 08:17:45;;;;;;;19.57;6.93;;;;;;;5.47;100.00;103229.09;5006224;28;20729;-51
2021/12/17 08:23:38;;;;;;;13.17;5.77;;;;;;;5.57;100.00;103249.69;5005063;28;20371;-51
2021/12/17 08:26:07;;;;;;;12.10;6.63;;;;;;;5.52;100.00;103243.34;5005504;28;20713;-52
2021/12/17 08:28:52;;;;;;;12.47;6.27;;;;;;;5.46;100.00;103235.13;5008031;28;20236;-51
2021/12/17 08:31:19;;;;;;;17.67;7.33;;;;;;;5.45;100.00;103228.13;5004397;28;20275;-52
2021/12/17 08:33:45;;;;;;;11.90;6.30;;;;;;;5.41;100.00;103227.06;5002736;28;20803;-53
2021/12/17 08:36:12;;;;;;;13.20;7.17;;;;;;;5.53;100.00;103242.50;5004370;28;20718;-52
2021/12/17 08:38:39;;;;;;;15.37;6.13;;;;;;;5.42;100.00;103244.47;5015472;28;20232;-52
2021/12/17 08:41:06;;;;;;;13.90;6.53;;;;;;;5.54;100.00;103253.84;5008089;28;20236;-53
2021/12/17 08:43:33;;;;;;;14.93;6.57;;;;;;;5.59;100.00;103253.31;5008577;28;20244;-51
2021/12/17 08:45:59;;;;;;;20.53;6.03;;;;;;;5.73;100.00;103251.53;5003842;28;20806;-52
2021/12/17 08:48:25;;;;;;;16.10;6.13;;;;;;;5.79;100.00;103246.69;5003956;28;20288;-51
2021/12/17 08:50:52;;;;;;;16.80;5.47;;;;;;;5.67;100.00;103248.56;5008411;28;20234;-52
2021/12/17 08:53:18;;;;;;;13.70;5.67;;;;;;;5.71;100.00;103250.53;5007847;28;20664;-51
2021/12/17 08:55:45;;;;;;;11.67;5.07;;;;;;;5.84;100.00;103236.53;5007636;28;20758;-53
2021/12/17 08:58:14;;;;;;;11.80;5.50;;;;;;;5.83;100.00;103248.66;5008000;28;20237;-54
2021/12/17 09:00:41;;;;;;;12.60;4.50;;;;;;;5.78;100.00;103238.75;5009751;28;20229;-54
2021/12/17 09:03:09;;;;;;;16.83;5.90;;;;;;;5.83;100.00;103239.94;4994983;28;20294;-54
2021/12/17 09:05:37;;;;;;;14.13;4.90;;;;;;;5.73;100.00;103251.53;4998483;28;20381;-52
2021/12/17 09:08:04;;;;;;;11.13;5.63;;;;;;;5.74;100.00;103255.94;5001465;28;20253;-52
2021/12/17 09:10:31;;;;;;;16.60;8.33;;;;;;;5.78;100.00;103264.81;5004593;28;21002;-52
2021/12/17 09:12:57;;;;;;;9.03;4.57;;;;;;;5.71;100.00;103259.25;5004921;28;20228;-54
2021/12/17 09:15:25;;;;;;;12.93;5.83;;;;;;;5.77;100.00;103265.66;4999842;28;20269;-51
2021/12/17 09:17:51;;;;;;;13.97;5.23;;;;;;;5.69;100.00;103262.59;5004366;28;20249;-53
2021/12/17 09:20:18;;;;;;;9.00;4.90;;;;;;;5.81;100.00;103265.00;5003935;28;20702;-51
2021/12/17 09:22:45;;;;;;;9.77;5.60;;;;;;;5.91;100.00;103277.78;5006092;28;20261;-52
2021/12/17 09:25:11;;;;;;;9.70;4.83;;;;;;;5.86;100.00;103281.81;5001966;28;20792;-53
2021/12/17 09:27:38;;;;;;;16.10;6.13;;;;;;;5.78;100.00;103288.28;5007288;28;20235;-52
2021/12/17 09:30:07;;;;;;;13.50;6.27;;;;;;;5.74;100.00;103288.09;5004872;28;20225;-51
2021/12/17 09:32:35;;;;;;;15.83;5.67;;;;;;;5.82;100.00;103295.47;5007537;28;20303;-53
2021/12/17 09:35:02;;;;;;;15.90;5.00;;;;;;;5.87;100.00;103292.34;5007855;28;20661;-53
2021/12/17 09:37:28;;;;;;;9.03;5.03;;;;;;;5.81;100.00;103285.88;5004270;28;20286;-61
2021/12/17 09:39:54;;;;;;;12.70;4.80;;;;;;;5.85;100.00;103285.25;5008831;28;20720;-53
2021/12/17 09:42:21;;;;;;;12.70;4.97;;;;;;;6.00;100.00;103283.56;5015802;28;20234;-52
2021/12/17 09:44:48;;;;;;;11.87;4.73;;;;;;;5.96;100.00;103289.41;5007842;28;20233;-54
2021/12/17 09:47:14;;;;;;;9.00;4.77;;;;;;;5.99;100.00;103286.97;5006899;28;20256;-52
2021/12/17 09:49:42;;;;;;;8.47;4.33;;;;;;;5.95;100.00;103280.69;5006161;28;20249;-51
2021/12/17 09:52:08;;;;;;;11.83;4.83;;;;;;;5.98;100.00;103279.97;5004913;28;20245;-52
2021/12/17 09:54:36;;;;;;;12.53;5.70;;;;;;;5.94;100.00;103278.00;5003489;28;20389;-52
2021/12/17 09:57:02;;;;;;;13.33;6.93;;;;;;;6.03;100.00;103281.13;4996132;28;20682;-49
2021/12/17 09:59:29;;;;;;;10.33;5.83;;;;;;;5.90;100.00;103284.72;5001269;28;20760;-52
2021/12/17 10:01:55;;;;;;;8.23;4.70;;;;;;;5.90;100.00;103283.81;5006334;28;20241;-53
2021/12/17 10:04:26;;;;;;;18.73;5.43;;;;;;;5.96;100.00;103281.59;5004432;28;20268;-51
2021/12/17 10:07:18;;;;;;;6.83;3.77;;;;;;;6.04;100.00;103275.13;5005444;28;20264;-52
2021/12/17 10:09:46;;;;;;;6.60;3.87;;;;;;;5.91;100.00;103296.03;5004120;28;20229;-53
2021/12/17 10:12:13;;;;;;;5.43;3.50;;;;;;;6.02;100.00;103289.78;4997629;28;20945;-53
2021/12/17 10:14:41;;;;;;;10.03;5.00;;;;;;;6.00;100.00;103282.66;5001210;28;20327;-53
2021/12/17 10:17:09;;;;;;;9.70;4.27;;;;;;;6.03;100.00;103288.94;5000362;28;20229;-51
2021/12/17 10:19:43;;;;;;;12.83;4.43;;;;;;;6.02;100.00;103287.16;5005934;28;20713;-51
2021/12/17 10:22:11;;;;;;;9.73;4.07;;;;;;;6.08;100.00;103287.53;5004800;28;20315;-51
2021/12/17 10:24:38;;;;;;;8.07;3.30;;;;;;;6.08;100.00;103291.84;4997747;28;20237;-54
2021/12/17 10:27:19;;;;;;;8.13;4.03;;;;;;;5.94;100.00;103294.53;5002107;28;20233;-51
2021/12/17 10:29:46;;;;;;;13.70;4.90;;;;;;;5.95;100.00;103303.25;5002311;28;20241;-52
2021/12/17 10:32:17;;;;;;;13.00;5.13;;;;;;;5.95;100.00;103300.66;5001819;28;20816;-52
2021/12/17 10:34:59;;;;;;;10.63;4.73;;;;;;;5.95;100.00;103274.56;5005399;28;20233;-52
2021/12/17 10:37:34;;;;;;;8.25;4.72;;;;;;;6.04;100.00;103287.25;5001276;28;20424;-53
2021/12/17 10:40:00;;;;;;;14.77;4.60;;;;;;;6.06;100.00;103289.13;5007628;28;20283;-52
2021/12/17 10:42:32;;;;;;;11.87;4.63;;;;;;;6.07;100.00;103279.59;5005360;28;20653;-52
2021/12/17 10:45:05;;;;;;;11.93;4.30;;;;;;;6.16;100.00;103281.03;5000588;28;20265;-52
2021/12/17 10:47:34;;;;;;;9.13;4.27;;;;;;;6.21;100.00;103283.91;4999264;28;20217;-52
2021/12/17 10:50:02;;;;;;;10.57;3.53;;;;;;;6.08;100.00;103277.09;5001535;28;20237;-53
2021/12/17 10:52:35;;;;;;;9.37;4.67;;;;;;;6.09;100.00;103284.09;5005163;28;20229;-53
2021/12/17 10:55:10;;;;;;;14.60;3.87;;;;;;;6.06;100.00;103276.09;5002204;28;20238;-53
2021/12/17 10:57:36;;;;;;;11.57;3.90;;;;;;;6.00;100.00;103277.44;5002537;28;20221;-53
2021/12/17 11:00:06;;;;;;;12.80;4.13;;;;;;;6.07;100.00;103274.38;5004810;28;20279;-53
2021/12/17 11:02:33;;;;;;;9.17;4.43;;;;;;;6.13;100.00;103269.53;5004981;28;20234;-52
2021/12/17 11:05:10;;;;;;;9.57;3.90;;;;;;;6.28;100.00;103279.94;5005100;28;20244;-53
2021/12/17 11:07:38;;;;;;;8.60;4.03;;;;;;;6.28;100.00;103279.94;5004901;28;20298;-53
2021/12/17 11:10:05;;;;;;;5.83;3.17;;;;;;;6.20;100.00;103275.19;5003660;28;20251;-52
2021/12/17 11:12:35;;;;;;;10.23;4.63;;;;;;;6.26;100.00;103276.38;5005518;28;20299;-53
2021/12/17 11:15:14;;;;;;;8.73;3.87;;;;;;;6.35;100.00;103285.63;4999615;28;20238;-52
2021/12/17 11:17:42;;;;;;;13.20;4.57;;;;;;;6.21;100.00;103282.22;5000307;28;20291;-52
2021/12/17 11:20:12;;;;;;;13.23;3.67;;;;;;;6.26;100.00;103292.03;5001875;28;20233;-52
2021/12/17 11:22:39;;;;;;;12.50;3.77;;;;;;;6.35;100.00;103289.91;5003292;28;20489;-52
2021/12/17 11:25:07;;;;;;;15.50;4.90;;;;;;;6.27;100.00;103285.97;5002712;28;20233;-52
2021/12/17 11:27:35;;;;;;;10.13;4.40;;;;;;;6.29;100.00;103282.66;5005653;28;20233;-51
2021/12/17 11:30:02;;;;;;;12.50;3.93;;;;;;;6.31;100.00;103269.69;5005745;28;20307;-53
2021/12/17 11:32:29;;;;;;;9.33;5.03;;;;;;;6.27;100.00;103278.16;5003179;28;20229;-51
2021/12/17 11:34:55;;;;;;;9.23;2.97;;;;;;;6.24;100.00;103270.16;5004442;28;20260;-51
2021/12/17 11:37:23;;;;;;;11.90;4.20;;;;;;;6.43;98.81;103275.63;5004016;28;20233;-51
2021/12/17 11:39:55;;;;;;;3.63;2.60;;;;;;;6.41;99.46;103282.44;5005495;28;20236;-52
2021/12/17 11:42:30;;;;;;;8.47;3.60;;;;;;;6.48;97.43;103281.09;5005816;28;20291;-53
2021/12/17 11:47:44;;;;;;;6.93;2.80;;;;;;;6.35;97.64;103284.69;4987803;28;20252;-52
2021/12/17 11:50:12;;;;;;;5.83;4.30;;;;;;;6.48;97.72;103295.03;4999682;28;20257;-53
2021/12/17 11:52:40;;;;;;;13.87;4.20;;;;;;;6.41;98.36;103288.56;4999718;28;20368;-54
2021/12/17 11:55:26;;;;;;;5.47;2.50;;;;;;;6.40;96.91;103289.38;4996411;28;20221;-52
2021/12/17 11:57:54;;;;;;;11.98;4.70;;;;;;;6.47;96.97;103279.31;5004923;28;20428;-54
2021/12/17 12:00:26;;;;;;;10.97;4.27;;;;;;;6.56;96.57;103279.81;5003756;28;20237;-54
2021/12/17 12:02:54;;;;;;;12.02;4.05;;;;;;;6.67;96.26;103282.22;5004717;28;20417;-53
2021/12/17 12:05:37;;;;;;;9.17;2.90;;;;;;;6.60;96.72;103285.31;5009712;28;20247;-52
2021/12/17 12:08:26;;;;;;;10.30;3.47;;;;;;;6.45;96.01;103284.41;5015398;22;20297;-56
2021/12/17 12:11:10;;;;;;;9.00;3.10;;;;;;;6.58;94.91;103286.91;4982128;28;20699;-54
2021/12/17 12:13:39;;;;;;;8.07;3.33;;;;;;;6.55;95.12;103289.34;4982404;28;20296;-54
2021/12/17 12:16:09;;;;;;;7.13;3.33;;;;;;;6.62;94.53;103278.44;4979193;28;20226;-55
2021/12/17 12:18:43;;;;;;;7.67;3.13;;;;;;;6.68;93.38;103286.63;4985691;28;20242;-56
2021/12/17 12:21:11;;;;;;;8.60;3.83;;;;;;;6.71;93.56;103288.53;4983595;28;20226;-55
2021/12/17 12:23:53;;;;;;;7.10;3.47;;;;;;;6.69;92.89;103296.25;4983692;28;20238;-54
2021/12/17 12:26:22;;;;;;;7.97;2.97;;;;;;;6.68;91.67;103277.91;4984182;28;20229;-55
2021/12/17 12:28:52;;;;;;;7.13;3.47;;;;;;;6.66;91.15;103285.63;4979675;28;20241;-55
2021/12/17 12:31:52;;;;;;;7.90;2.80;;;;;;;6.68;91.29;103280.50;4983965;28;20236;-54
2021/12/17 12:34:21;;;;;;;5.83;3.10;;;;;;;6.62;91.91;103288.88;4979770;28;20238;-53
2021/12/17 12:36:51;;;;;;;8.97;3.70;;;;;;;6.72;91.29;103287.69;4982546;28;20724;-55
2021/12/17 12:39:19;;;;;;;7.87;3.40;;;;;;;6.61;92.53;103289.72;4983351;28;20230;-55
2021/12/17 12:41:47;;;;;;;8.03;3.30;;;;;;;6.49;93.50;103291.59;4983869;28;20246;-55
2021/12/17 12:44:13;;;;;;;5.50;2.93;;;;;;;6.50;93.98;103290.81;4983455;28;20257;-54
2021/12/17 12:46:51;;;;;;;7.17;3.30;;;;;;;6.40;95.21;103292.00;4982627;28;20230;-55
2021/12/17 12:49:44;;;;;;;7.47;3.20;;;;;;;6.34;95.43;103290.75;4983158;28;20308;-58
2021/12/17 12:52:16;;;;;;;5.70;2.93;;;;;;;6.51;94.66;103284.78;4982976;28;20237;-54
2021/12/17 12:54:42;;;;;;;7.93;3.07;;;;;;;6.52;94.91;103276.13;4985469;28;20252;-54
2021/12/17 12:57:09;;;;;;;10.67;3.53;;;;;;;6.54;94.63;103269.28;4983883;28;20288;-54
2021/12/17 12:59:36;;;;;;;9.87;2.87;;;;;;;6.54;94.55;103274.50;4990233;28;20289;-57
2021/12/17 13:02:02;;;;;;;6.87;3.40;;;;;;;6.52;94.40;103270.91;4988978;28;20258;-56
2021/12/17 13:04:30;;;;;;;6.93;2.87;;;;;;;6.48;95.35;103262.81;4986997;28;20234;-54
2021/12/17 13:06:58;;;;;;;5.60;2.90;;;;;;;6.44;94.79;103259.16;4981315;28;20230;-54
2021/12/17 13:09:29;;;;;;;6.53;2.50;;;;;;;6.43;95.37;103257.34;4995073;28;20949;-55
2021/12/17 13:11:56;;;;;;;9.20;3.10;;;;;;;6.45;95.55;103256.59;4985424;28;20228;-56
2021/12/17 13:14:24;;;;;;;8.20;2.93;;;;;;;6.57;93.77;103253.81;4995768;28;20233;-56
2021/12/17 13:17:16;;;;;;;9.40;3.00;;;;;;;6.64;93.64;103263.78;4985173;28;20237;-55
2021/12/17 13:20:29;;;;;;;6.20;2.57;;;;;;;6.62;93.54;103268.00;4989917;28;20230;-55
2021/12/17 13:22:56;;;;;;;6.70;3.03;;;;;;;6.62;93.43;103275.84;4987542;28;20242;-55